sensor_id;sensor_type;location;lat;lon;timestamp;P1;durP1;ratioP1;P2;durP2;ratioP2
27925;SDS011;15267;47.838;12.128;2023-12-04T00:02:12;40.33;;;23.17;;
27925;SDS011;15267;47.838;12.128;2023-12-04T00:04:37;38.67;;;22.85;;
27925;SDS011;15267;47.838;12.128;2023-12-04T00:07:03;38.08;;;22.10;;
27925;SDS011;15267;47.838;12.128;2023-12-04T00:09:29;34.80;;;20.92;;
27925;SDS011;15267;47.838;12.128;2023-12-04T00:11:55;32.65;;;20.48;;
27925;SDS011;15267;47.838;12.128;2023-12-04T00:14:21;35.33;;;20.15;;
27925;SDS011;15267;47.838;12.128;2023-12-04T00:16:47;31.88;;;20.00;;
27925;SDS011;15267;47.838;12.128;2023-12-04T00:19:13;31.58;;;19.40;;
27925;SDS011;15267;47.838;12.128;2023-12-04T00:21:39;28.30;;;18.67;;
27925;SDS011;15267;47.838;12.128;2023-12-04T00:24:05;30.75;;;18.95;;
27925;SDS011;15267;47.838;12.128;2023-12-04T00:26:31;29.98;;;19.55;;
27925;SDS011;15267;47.838;12.128;2023-12-04T00:28:57;30.55;;;19.30;;
27925;SDS011;15267;47.838;12.128;2023-12-04T00:31:23;28.95;;;18.88;;
27925;SDS011;15267;47.838;12.128;2023-12-04T00:33:49;29.30;;;18.30;;
27925;SDS011;15267;47.838;12.128;2023-12-04T00:36:15;26.70;;;17.33;;
27925;SDS011;15267;47.838;12.128;2023-12-04T00:38:41;27.33;;;17.90;;
27925;SDS011;15267;47.838;12.128;2023-12-04T00:41:07;28.42;;;17.27;;
27925;SDS011;15267;47.838;12.128;2023-12-04T00:43:33;27.25;;;17.98;;
27925;SDS011;15267;47.838;12.128;2023-12-04T00:45:59;26.98;;;17.60;;
27925;SDS011;15267;47.838;12.128;2023-12-04T00:48:25;28.92;;;17.63;;
27925;SDS011;15267;47.838;12.128;2023-12-04T00:50:51;27.75;;;17.20;;
27925;SDS011;15267;47.838;12.128;2023-12-04T00:53:17;28.83;;;18.30;;
27925;SDS011;15267;47.838;12.128;2023-12-04T00:55:43;27.67;;;17.10;;
27925;SDS011;15267;47.838;12.128;2023-12-04T00:58:09;26.35;;;17.33;;
27925;SDS011;15267;47.838;12.128;2023-12-04T01:00:34;26.83;;;17.60;;
27925;SDS011;15267;47.838;12.128;2023-12-04T01:03:00;29.27;;;18.02;;
27925;SDS011;15267;47.838;12.128;2023-12-04T01:05:26;30.40;;;18.38;;
27925;SDS011;15267;47.838;12.128;2023-12-04T01:07:52;29.65;;;19.20;;
27925;SDS011;15267;47.838;12.128;2023-12-04T01:10:18;28.80;;;19.00;;
27925;SDS011;15267;47.838;12.128;2023-12-04T01:12:45;28.52;;;17.88;;
27925;SDS011;15267;47.838;12.128;2023-12-04T01:15:11;30.20;;;18.35;;
27925;SDS011;15267;47.838;12.128;2023-12-04T01:17:37;30.88;;;19.20;;
27925;SDS011;15267;47.838;12.128;2023-12-04T01:20:03;32.33;;;19.60;;
27925;SDS011;15267;47.838;12.128;2023-12-04T01:22:29;32.42;;;20.10;;
27925;SDS011;15267;47.838;12.128;2023-12-04T01:24:55;34.08;;;20.75;;
27925;SDS011;15267;47.838;12.128;2023-12-04T01:27:21;30.92;;;19.20;;
27925;SDS011;15267;47.838;12.128;2023-12-04T01:29:47;31.38;;;19.73;;
27925;SDS011;15267;47.838;12.128;2023-12-04T01:32:13;34.78;;;20.52;;
27925;SDS011;15267;47.838;12.128;2023-12-04T01:34:39;33.63;;;21.08;;
27925;SDS011;15267;47.838;12.128;2023-12-04T01:37:05;32.70;;;20.65;;
27925;SDS011;15267;47.838;12.128;2023-12-04T01:39:31;31.88;;;20.35;;
27925;SDS011;15267;47.838;12.128;2023-12-04T01:41:57;32.92;;;20.25;;
27925;SDS011;15267;47.838;12.128;2023-12-04T01:44:23;32.25;;;20.15;;
27925;SDS011;15267;47.838;12.128;2023-12-04T01:46:49;34.13;;;21.10;;
27925;SDS011;15267;47.838;12.128;2023-12-04T01:49:16;33.78;;;20.65;;
27925;SDS011;15267;47.838;12.128;2023-12-04T01:51:42;34.90;;;21.48;;
27925;SDS011;15267;47.838;12.128;2023-12-04T01:54:08;34.03;;;20.45;;
27925;SDS011;15267;47.838;12.128;2023-12-04T01:56:34;34.03;;;21.15;;
27925;SDS011;15267;47.838;12.128;2023-12-04T01:59:02;33.28;;;20.10;;
27925;SDS011;15267;47.838;12.128;2023-12-04T02:01:28;33.33;;;21.02;;
27925;SDS011;15267;47.838;12.128;2023-12-04T02:03:54;33.05;;;20.88;;
27925;SDS011;15267;47.838;12.128;2023-12-04T02:06:21;33.38;;;20.13;;
27925;SDS011;15267;47.838;12.128;2023-12-04T02:08:47;34.10;;;20.70;;
27925;SDS011;15267;47.838;12.128;2023-12-04T02:11:13;31.98;;;20.58;;
27925;SDS011;15267;47.838;12.128;2023-12-04T02:13:39;30.98;;;19.45;;
27925;SDS011;15267;47.838;12.128;2023-12-04T02:16:06;32.55;;;19.90;;
27925;SDS011;15267;47.838;12.128;2023-12-04T02:18:35;32.70;;;20.55;;
27925;SDS011;15267;47.838;12.128;2023-12-04T02:21:01;31.85;;;20.15;;
27925;SDS011;15267;47.838;12.128;2023-12-04T02:23:27;35.28;;;21.83;;
27925;SDS011;15267;47.838;12.128;2023-12-04T02:25:54;31.42;;;19.73;;
27925;SDS011;15267;47.838;12.128;2023-12-04T02:28:22;31.60;;;19.85;;
27925;SDS011;15267;47.838;12.128;2023-12-04T02:30:48;31.25;;;19.90;;
27925;SDS011;15267;47.838;12.128;2023-12-04T02:33:15;32.63;;;19.65;;
27925;SDS011;15267;47.838;12.128;2023-12-04T02:35:42;29.63;;;19.08;;
27925;SDS011;15267;47.838;12.128;2023-12-04T02:38:09;29.65;;;18.88;;
27925;SDS011;15267;47.838;12.128;2023-12-04T02:40:35;31.13;;;19.90;;
27925;SDS011;15267;47.838;12.128;2023-12-04T02:43:01;29.88;;;18.23;;
27925;SDS011;15267;47.838;12.128;2023-12-04T02:45:27;30.38;;;19.48;;
27925;SDS011;15267;47.838;12.128;2023-12-04T02:47:53;29.20;;;19.02;;
27925;SDS011;15267;47.838;12.128;2023-12-04T02:50:19;29.83;;;18.63;;
27925;SDS011;15267;47.838;12.128;2023-12-04T02:52:45;29.00;;;18.63;;
27925;SDS011;15267;47.838;12.128;2023-12-04T02:55:11;29.30;;;19.30;;
27925;SDS011;15267;47.838;12.128;2023-12-04T02:57:37;30.55;;;19.33;;
27925;SDS011;15267;47.838;12.128;2023-12-04T03:00:03;29.70;;;18.67;;
27925;SDS011;15267;47.838;12.128;2023-12-04T03:02:29;31.20;;;19.48;;
27925;SDS011;15267;47.838;12.128;2023-12-04T03:04:55;28.30;;;18.48;;
27925;SDS011;15267;47.838;12.128;2023-12-04T03:07:21;29.45;;;18.20;;
27925;SDS011;15267;47.838;12.128;2023-12-04T03:09:49;27.70;;;17.60;;
27925;SDS011;15267;47.838;12.128;2023-12-04T03:12:15;28.65;;;18.25;;
27925;SDS011;15267;47.838;12.128;2023-12-04T03:14:41;30.75;;;19.15;;
27925;SDS011;15267;47.838;12.128;2023-12-04T03:17:07;29.15;;;18.88;;
27925;SDS011;15267;47.838;12.128;2023-12-04T03:19:33;31.23;;;19.67;;
27925;SDS011;15267;47.838;12.128;2023-12-04T03:21:59;30.17;;;18.63;;
27925;SDS011;15267;47.838;12.128;2023-12-04T03:24:25;33.30;;;19.17;;
27925;SDS011;15267;47.838;12.128;2023-12-04T03:26:51;31.25;;;18.70;;
27925;SDS011;15267;47.838;12.128;2023-12-04T03:29:17;31.25;;;18.38;;
27925;SDS011;15267;47.838;12.128;2023-12-04T03:31:43;29.42;;;18.02;;
27925;SDS011;15267;47.838;12.128;2023-12-04T03:34:09;28.92;;;18.08;;
27925;SDS011;15267;47.838;12.128;2023-12-04T03:36:35;29.42;;;18.23;;
27925;SDS011;15267;47.838;12.128;2023-12-04T03:39:01;30.67;;;19.13;;
27925;SDS011;15267;47.838;12.128;2023-12-04T03:41:27;29.90;;;18.02;;
27925;SDS011;15267;47.838;12.128;2023-12-04T03:43:53;29.35;;;17.90;;
27925;SDS011;15267;47.838;12.128;2023-12-04T03:46:19;31.58;;;19.60;;
27925;SDS011;15267;47.838;12.128;2023-12-04T03:48:45;30.40;;;18.52;;
27925;SDS011;15267;47.838;12.128;2023-12-04T03:51:11;30.17;;;18.42;;
27925;SDS011;15267;47.838;12.128;2023-12-04T03:53:37;29.75;;;18.38;;
27925;SDS011;15267;47.838;12.128;2023-12-04T03:56:03;32.90;;;19.27;;
27925;SDS011;15267;47.838;12.128;2023-12-04T03:58:29;30.95;;;19.00;;
27925;SDS011;15267;47.838;12.128;2023-12-04T04:00:55;31.98;;;19.25;;
27925;SDS011;15267;47.838;12.128;2023-12-04T04:03:21;29.15;;;18.58;;
27925;SDS011;15267;47.838;12.128;2023-12-04T04:05:47;28.60;;;17.88;;
27925;SDS011;15267;47.838;12.128;2023-12-04T04:08:13;35.20;;;21.40;;
27925;SDS011;15267;47.838;12.128;2023-12-04T04:10:39;34.13;;;21.58;;
27925;SDS011;15267;47.838;12.128;2023-12-04T04:13:05;35.08;;;21.98;;
27925;SDS011;15267;47.838;12.128;2023-12-04T04:15:31;32.83;;;19.45;;
27925;SDS011;15267;47.838;12.128;2023-12-04T04:17:57;29.92;;;18.85;;
27925;SDS011;15267;47.838;12.128;2023-12-04T04:20:23;33.55;;;20.33;;
27925;SDS011;15267;47.838;12.128;2023-12-04T04:22:49;31.77;;;19.90;;
27925;SDS011;15267;47.838;12.128;2023-12-04T04:25:15;31.83;;;20.30;;
27925;SDS011;15267;47.838;12.128;2023-12-04T04:27:41;31.27;;;19.38;;
27925;SDS011;15267;47.838;12.128;2023-12-04T04:30:07;39.42;;;25.60;;
27925;SDS011;15267;47.838;12.128;2023-12-04T04:32:33;39.35;;;23.52;;
27925;SDS011;15267;47.838;12.128;2023-12-04T04:34:59;34.95;;;21.13;;
27925;SDS011;15267;47.838;12.128;2023-12-04T04:37:25;36.42;;;22.08;;
27925;SDS011;15267;47.838;12.128;2023-12-04T04:39:51;37.10;;;22.88;;
27925;SDS011;15267;47.838;12.128;2023-12-04T04:42:17;46.63;;;28.17;;
27925;SDS011;15267;47.838;12.128;2023-12-04T04:44:43;39.72;;;24.90;;
27925;SDS011;15267;47.838;12.128;2023-12-04T04:47:09;57.67;;;31.50;;
27925;SDS011;15267;47.838;12.128;2023-12-04T04:49:35;35.97;;;20.90;;
27925;SDS011;15267;47.838;12.128;2023-12-04T04:52:01;49.05;;;25.50;;
27925;SDS011;15267;47.838;12.128;2023-12-04T04:54:27;33.80;;;20.23;;
27925;SDS011;15267;47.838;12.128;2023-12-04T04:56:56;26.85;;;18.25;;
27925;SDS011;15267;47.838;12.128;2023-12-04T04:59:22;26.98;;;16.95;;
27925;SDS011;15267;47.838;12.128;2023-12-04T05:01:48;31.95;;;20.00;;
27925;SDS011;15267;47.838;12.128;2023-12-04T05:04:14;28.05;;;18.00;;
27925;SDS011;15267;47.838;12.128;2023-12-04T05:06:40;29.45;;;19.75;;
27925;SDS011;15267;47.838;12.128;2023-12-04T05:09:06;30.92;;;18.58;;
27925;SDS011;15267;47.838;12.128;2023-12-04T05:11:32;34.78;;;22.75;;
27925;SDS011;15267;47.838;12.128;2023-12-04T05:13:58;30.20;;;19.65;;
27925;SDS011;15267;47.838;12.128;2023-12-04T05:16:24;34.58;;;21.63;;
27925;SDS011;15267;47.838;12.128;2023-12-04T05:18:50;31.38;;;19.38;;
27925;SDS011;15267;47.838;12.128;2023-12-04T05:21:15;24.00;;;16.23;;
27925;SDS011;15267;47.838;12.128;2023-12-04T05:23:41;28.98;;;19.10;;
27925;SDS011;15267;47.838;12.128;2023-12-04T05:26:07;28.65;;;18.60;;
27925;SDS011;15267;47.838;12.128;2023-12-04T05:28:34;25.15;;;16.95;;
27925;SDS011;15267;47.838;12.128;2023-12-04T05:31:00;27.83;;;18.25;;
27925;SDS011;15267;47.838;12.128;2023-12-04T05:33:26;26.02;;;17.15;;
27925;SDS011;15267;47.838;12.128;2023-12-04T05:35:52;25.73;;;16.95;;
27925;SDS011;15267;47.838;12.128;2023-12-04T05:38:18;33.17;;;17.95;;
27925;SDS011;15267;47.838;12.128;2023-12-04T05:40:44;28.58;;;17.80;;
27925;SDS011;15267;47.838;12.128;2023-12-04T05:43:10;27.63;;;17.13;;
27925;SDS011;15267;47.838;12.128;2023-12-04T05:45:36;26.45;;;16.00;;
27925;SDS011;15267;47.838;12.128;2023-12-04T05:48:02;25.73;;;16.52;;
27925;SDS011;15267;47.838;12.128;2023-12-04T05:50:28;25.10;;;16.60;;
27925;SDS011;15267;47.838;12.128;2023-12-04T05:52:54;25.58;;;16.75;;
27925;SDS011;15267;47.838;12.128;2023-12-04T05:55:20;27.67;;;17.58;;
27925;SDS011;15267;47.838;12.128;2023-12-04T05:57:46;26.02;;;16.05;;
27925;SDS011;15267;47.838;12.128;2023-12-04T06:00:12;28.40;;;17.58;;
27925;SDS011;15267;47.838;12.128;2023-12-04T06:02:42;26.33;;;16.58;;
27925;SDS011;15267;47.838;12.128;2023-12-04T06:05:08;32.92;;;18.65;;
27925;SDS011;15267;47.838;12.128;2023-12-04T06:07:34;28.30;;;17.38;;
27925;SDS011;15267;47.838;12.128;2023-12-04T06:10:00;27.35;;;17.15;;
27925;SDS011;15267;47.838;12.128;2023-12-04T06:12:26;28.02;;;16.80;;
27925;SDS011;15267;47.838;12.128;2023-12-04T06:14:52;30.30;;;18.17;;
27925;SDS011;15267;47.838;12.128;2023-12-04T06:17:18;28.35;;;17.95;;
27925;SDS011;15267;47.838;12.128;2023-12-04T06:19:45;28.08;;;17.30;;
27925;SDS011;15267;47.838;12.128;2023-12-04T06:22:11;27.77;;;16.95;;
27925;SDS011;15267;47.838;12.128;2023-12-04T06:24:37;28.48;;;18.23;;
27925;SDS011;15267;47.838;12.128;2023-12-04T06:27:03;35.13;;;21.75;;
27925;SDS011;15267;47.838;12.128;2023-12-04T06:29:31;34.22;;;21.42;;
27925;SDS011;15267;47.838;12.128;2023-12-04T06:31:57;29.90;;;19.35;;
27925;SDS011;15267;47.838;12.128;2023-12-04T06:34:23;27.23;;;17.95;;
27925;SDS011;15267;47.838;12.128;2023-12-04T06:36:50;25.65;;;15.88;;
27925;SDS011;15267;47.838;12.128;2023-12-04T06:39:16;26.08;;;16.17;;
27925;SDS011;15267;47.838;12.128;2023-12-04T06:41:42;29.35;;;17.30;;
27925;SDS011;15267;47.838;12.128;2023-12-04T06:44:09;27.90;;;17.02;;
27925;SDS011;15267;47.838;12.128;2023-12-04T06:46:36;35.55;;;20.00;;
27925;SDS011;15267;47.838;12.128;2023-12-04T06:49:03;33.85;;;19.77;;
27925;SDS011;15267;47.838;12.128;2023-12-04T06:51:30;31.30;;;18.58;;
27925;SDS011;15267;47.838;12.128;2023-12-04T06:53:56;32.58;;;19.77;;
27925;SDS011;15267;47.838;12.128;2023-12-04T06:56:22;34.65;;;21.02;;
27925;SDS011;15267;47.838;12.128;2023-12-04T06:58:48;33.17;;;19.05;;
27925;SDS011;15267;47.838;12.128;2023-12-04T07:01:14;31.63;;;19.75;;
27925;SDS011;15267;47.838;12.128;2023-12-04T07:03:40;33.45;;;19.90;;
27925;SDS011;15267;47.838;12.128;2023-12-04T07:06:06;33.33;;;20.15;;
27925;SDS011;15267;47.838;12.128;2023-12-04T07:08:32;34.75;;;20.30;;
27925;SDS011;15267;47.838;12.128;2023-12-04T07:10:58;34.17;;;20.17;;
27925;SDS011;15267;47.838;12.128;2023-12-04T07:13:24;35.05;;;20.60;;
27925;SDS011;15267;47.838;12.128;2023-12-04T07:15:50;33.63;;;20.80;;
27925;SDS011;15267;47.838;12.128;2023-12-04T07:18:16;38.42;;;21.20;;
27925;SDS011;15267;47.838;12.128;2023-12-04T07:20:42;34.63;;;19.63;;
27925;SDS011;15267;47.838;12.128;2023-12-04T07:23:08;38.63;;;22.08;;
27925;SDS011;15267;47.838;12.128;2023-12-04T07:25:34;38.03;;;22.25;;
27925;SDS011;15267;47.838;12.128;2023-12-04T07:28:00;35.97;;;21.30;;
27925;SDS011;15267;47.838;12.128;2023-12-04T07:30:26;37.75;;;21.73;;
27925;SDS011;15267;47.838;12.128;2023-12-04T07:32:52;44.60;;;24.85;;
27925;SDS011;15267;47.838;12.128;2023-12-04T07:35:18;45.90;;;24.67;;
27925;SDS011;15267;47.838;12.128;2023-12-04T07:37:44;27.42;;;15.75;;
27925;SDS011;15267;47.838;12.128;2023-12-04T07:40:10;28.35;;;16.67;;
27925;SDS011;15267;47.838;12.128;2023-12-04T07:42:36;40.50;;;26.17;;
27925;SDS011;15267;47.838;12.128;2023-12-04T07:45:03;43.95;;;26.52;;
27925;SDS011;15267;47.838;12.128;2023-12-04T07:47:29;40.28;;;24.95;;
27925;SDS011;15267;47.838;12.128;2023-12-04T07:49:55;42.25;;;24.83;;
27925;SDS011;15267;47.838;12.128;2023-12-04T07:52:21;37.30;;;23.77;;
27925;SDS011;15267;47.838;12.128;2023-12-04T07:54:47;34.42;;;20.33;;
27925;SDS011;15267;47.838;12.128;2023-12-04T07:57:13;33.42;;;20.02;;
27925;SDS011;15267;47.838;12.128;2023-12-04T07:59:39;34.13;;;19.58;;
27925;SDS011;15267;47.838;12.128;2023-12-04T08:02:05;32.40;;;19.20;;
27925;SDS011;15267;47.838;12.128;2023-12-04T08:04:31;40.47;;;23.77;;
27925;SDS011;15267;47.838;12.128;2023-12-04T08:06:57;31.25;;;18.60;;
27925;SDS011;15267;47.838;12.128;2023-12-04T08:09:23;24.13;;;15.90;;
27925;SDS011;15267;47.838;12.128;2023-12-04T08:11:49;27.98;;;17.88;;
27925;SDS011;15267;47.838;12.128;2023-12-04T08:14:15;28.70;;;17.17;;
27925;SDS011;15267;47.838;12.128;2023-12-04T08:16:41;29.38;;;17.83;;
27925;SDS011;15267;47.838;12.128;2023-12-04T08:19:07;28.38;;;18.00;;
27925;SDS011;15267;47.838;12.128;2023-12-04T08:21:33;29.50;;;17.60;;
27925;SDS011;15267;47.838;12.128;2023-12-04T08:23:59;25.25;;;16.35;;
27925;SDS011;15267;47.838;12.128;2023-12-04T08:26:25;28.10;;;17.50;;
27925;SDS011;15267;47.838;12.128;2023-12-04T08:28:51;27.98;;;16.60;;
27925;SDS011;15267;47.838;12.128;2023-12-04T08:31:17;29.08;;;17.33;;
27925;SDS011;15267;47.838;12.128;2023-12-04T08:33:43;29.75;;;17.55;;
27925;SDS011;15267;47.838;12.128;2023-12-04T08:36:10;29.73;;;17.48;;
27925;SDS011;15267;47.838;12.128;2023-12-04T08:38:36;27.23;;;17.27;;
27925;SDS011;15267;47.838;12.128;2023-12-04T08:41:03;26.80;;;17.05;;
27925;SDS011;15267;47.838;12.128;2023-12-04T08:43:29;30.42;;;18.10;;
27925;SDS011;15267;47.838;12.128;2023-12-04T08:45:55;27.75;;;17.30;;
27925;SDS011;15267;47.838;12.128;2023-12-04T08:48:21;25.58;;;17.27;;
27925;SDS011;15267;47.838;12.128;2023-12-04T08:50:47;27.88;;;18.02;;
27925;SDS011;15267;47.838;12.128;2023-12-04T08:53:14;25.42;;;16.27;;
27925;SDS011;15267;47.838;12.128;2023-12-04T08:55:40;26.15;;;17.52;;
27925;SDS011;15267;47.838;12.128;2023-12-04T08:58:06;28.60;;;18.50;;
27925;SDS011;15267;47.838;12.128;2023-12-04T09:00:32;26.23;;;17.63;;
27925;SDS011;15267;47.838;12.128;2023-12-04T09:02:58;24.05;;;16.52;;
27925;SDS011;15267;47.838;12.128;2023-12-04T09:05:24;29.77;;;18.58;;
27925;SDS011;15267;47.838;12.128;2023-12-04T09:07:49;27.98;;;17.63;;
27925;SDS011;15267;47.838;12.128;2023-12-04T09:10:15;29.05;;;18.70;;
27925;SDS011;15267;47.838;12.128;2023-12-04T09:12:42;28.52;;;18.48;;
27925;SDS011;15267;47.838;12.128;2023-12-04T09:15:08;31.17;;;20.38;;
27925;SDS011;15267;47.838;12.128;2023-12-04T09:17:34;34.17;;;22.33;;
27925;SDS011;15267;47.838;12.128;2023-12-04T09:20:00;36.78;;;22.75;;
27925;SDS011;15267;47.838;12.128;2023-12-04T09:22:25;38.60;;;24.92;;
27925;SDS011;15267;47.838;12.128;2023-12-04T09:24:51;37.45;;;23.60;;
27925;SDS011;15267;47.838;12.128;2023-12-04T09:27:17;33.85;;;21.30;;
27925;SDS011;15267;47.838;12.128;2023-12-04T09:29:43;28.83;;;19.50;;
27925;SDS011;15267;47.838;12.128;2023-12-04T09:32:09;31.15;;;20.65;;
27925;SDS011;15267;47.838;12.128;2023-12-04T09:34:35;28.88;;;20.20;;
27925;SDS011;15267;47.838;12.128;2023-12-04T09:37:02;32.47;;;21.38;;
27925;SDS011;15267;47.838;12.128;2023-12-04T09:39:29;26.63;;;18.80;;
27925;SDS011;15267;47.838;12.128;2023-12-04T09:41:55;30.65;;;20.48;;
27925;SDS011;15267;47.838;12.128;2023-12-04T09:44:21;31.23;;;19.30;;
27925;SDS011;15267;47.838;12.128;2023-12-04T09:46:48;32.53;;;19.27;;
27925;SDS011;15267;47.838;12.128;2023-12-04T09:49:14;30.23;;;19.45;;
27925;SDS011;15267;47.838;12.128;2023-12-04T09:51:41;34.42;;;21.70;;
27925;SDS011;15267;47.838;12.128;2023-12-04T09:54:07;33.30;;;21.15;;
27925;SDS011;15267;47.838;12.128;2023-12-04T09:56:33;30.77;;;20.42;;
27925;SDS011;15267;47.838;12.128;2023-12-04T09:59:00;30.80;;;20.75;;
27925;SDS011;15267;47.838;12.128;2023-12-04T10:01:28;29.15;;;19.27;;
27925;SDS011;15267;47.838;12.128;2023-12-04T10:03:54;29.33;;;19.63;;
27925;SDS011;15267;47.838;12.128;2023-12-04T10:06:22;31.17;;;20.02;;
27925;SDS011;15267;47.838;12.128;2023-12-04T10:08:49;32.42;;;20.55;;
27925;SDS011;15267;47.838;12.128;2023-12-04T10:11:15;30.45;;;19.40;;
27925;SDS011;15267;47.838;12.128;2023-12-04T10:13:41;32.47;;;19.45;;
27925;SDS011;15267;47.838;12.128;2023-12-04T10:16:07;28.65;;;18.65;;
27925;SDS011;15267;47.838;12.128;2023-12-04T10:18:33;30.83;;;18.63;;
27925;SDS011;15267;47.838;12.128;2023-12-04T10:21:00;29.30;;;18.90;;
27925;SDS011;15267;47.838;12.128;2023-12-04T10:23:39;31.70;;;19.25;;
27925;SDS011;15267;47.838;12.128;2023-12-04T10:28:32;34.83;;;21.85;;
27925;SDS011;15267;47.838;12.128;2023-12-04T10:30:58;35.60;;;21.30;;
27925;SDS011;15267;47.838;12.128;2023-12-04T10:33:25;31.00;;;20.20;;
27925;SDS011;15267;47.838;12.128;2023-12-04T10:35:52;31.95;;;21.17;;
27925;SDS011;15267;47.838;12.128;2023-12-04T10:38:18;33.70;;;20.95;;
27925;SDS011;15267;47.838;12.128;2023-12-04T10:40:44;31.33;;;20.90;;
27925;SDS011;15267;47.838;12.128;2023-12-04T10:43:20;30.70;;;19.92;;
27925;SDS011;15267;47.838;12.128;2023-12-04T10:45:47;41.53;;;23.10;;
27925;SDS011;15267;47.838;12.128;2023-12-04T10:48:14;39.00;;;23.65;;
27925;SDS011;15267;47.838;12.128;2023-12-04T10:50:42;41.72;;;25.42;;
27925;SDS011;15267;47.838;12.128;2023-12-04T10:53:08;38.47;;;24.75;;
27925;SDS011;15267;47.838;12.128;2023-12-04T10:55:35;34.45;;;22.25;;
27925;SDS011;15267;47.838;12.128;2023-12-04T10:58:02;33.85;;;21.38;;
27925;SDS011;15267;47.838;12.128;2023-12-04T11:00:35;29.38;;;18.92;;
27925;SDS011;15267;47.838;12.128;2023-12-04T11:03:05;31.60;;;20.15;;
27925;SDS011;15267;47.838;12.128;2023-12-04T11:05:33;29.27;;;20.30;;
27925;SDS011;15267;47.838;12.128;2023-12-04T11:08:02;31.17;;;21.13;;
27925;SDS011;15267;47.838;12.128;2023-12-04T11:10:31;36.65;;;22.58;;
27925;SDS011;15267;47.838;12.128;2023-12-04T11:13:32;33.72;;;21.95;;
27925;SDS011;15267;47.838;12.128;2023-12-04T11:15:50;34.58;;;21.98;;
27925;SDS011;15267;47.838;12.128;2023-12-04T11:18:20;36.35;;;23.38;;
27925;SDS011;15267;47.838;12.128;2023-12-04T11:20:48;36.92;;;23.13;;
27925;SDS011;15267;47.838;12.128;2023-12-04T11:23:16;38.22;;;23.65;;
27925;SDS011;15267;47.838;12.128;2023-12-04T11:25:43;40.35;;;25.92;;
27925;SDS011;15267;47.838;12.128;2023-12-04T11:28:09;39.65;;;24.15;;
27925;SDS011;15267;47.838;12.128;2023-12-04T11:30:36;34.97;;;22.83;;
27925;SDS011;15267;47.838;12.128;2023-12-04T11:33:02;26.33;;;18.60;;
27925;SDS011;15267;47.838;12.128;2023-12-04T11:35:28;30.75;;;19.05;;
27925;SDS011;15267;47.838;12.128;2023-12-04T11:37:55;31.38;;;19.75;;
27925;SDS011;15267;47.838;12.128;2023-12-04T11:40:22;30.38;;;21.15;;
27925;SDS011;15267;47.838;12.128;2023-12-04T11:42:48;36.25;;;24.00;;
27925;SDS011;15267;47.838;12.128;2023-12-04T11:45:18;43.03;;;26.05;;
27925;SDS011;15267;47.838;12.128;2023-12-04T11:48:03;41.53;;;27.20;;
27925;SDS011;15267;47.838;12.128;2023-12-04T11:50:29;70.03;;;37.63;;
27925;SDS011;15267;47.838;12.128;2023-12-04T11:52:55;94.68;;;45.15;;
27925;SDS011;15267;47.838;12.128;2023-12-04T11:55:21;82.30;;;39.47;;
27925;SDS011;15267;47.838;12.128;2023-12-04T11:57:49;71.88;;;34.90;;
27925;SDS011;15267;47.838;12.128;2023-12-04T12:05:14;44.75;;;26.85;;
27925;SDS011;15267;47.838;12.128;2023-12-04T12:07:40;43.25;;;28.02;;
27925;SDS011;15267;47.838;12.128;2023-12-04T12:10:06;34.53;;;24.83;;
27925;SDS011;15267;47.838;12.128;2023-12-04T12:12:33;35.20;;;22.88;;
27925;SDS011;15267;47.838;12.128;2023-12-04T12:15:01;30.20;;;20.20;;
27925;SDS011;15267;47.838;12.128;2023-12-04T12:17:27;29.83;;;20.35;;
27925;SDS011;15267;47.838;12.128;2023-12-04T12:19:53;38.28;;;23.33;;
27925;SDS011;15267;47.838;12.128;2023-12-04T12:22:22;34.97;;;23.15;;
27925;SDS011;15267;47.838;12.128;2023-12-04T12:24:50;35.10;;;23.40;;
27925;SDS011;15267;47.838;12.128;2023-12-04T12:27:16;34.35;;;23.23;;
27925;SDS011;15267;47.838;12.128;2023-12-04T12:29:42;38.22;;;24.40;;
27925;SDS011;15267;47.838;12.128;2023-12-04T12:32:08;36.45;;;23.05;;
27925;SDS011;15267;47.838;12.128;2023-12-04T12:34:34;36.67;;;22.63;;
27925;SDS011;15267;47.838;12.128;2023-12-04T12:37:04;36.40;;;23.50;;
27925;SDS011;15267;47.838;12.128;2023-12-04T12:39:30;37.85;;;25.38;;
27925;SDS011;15267;47.838;12.128;2023-12-04T12:41:56;33.63;;;21.85;;
27925;SDS011;15267;47.838;12.128;2023-12-04T12:44:22;34.10;;;21.15;;
27925;SDS011;15267;47.838;12.128;2023-12-04T12:46:48;31.45;;;21.52;;
27925;SDS011;15267;47.838;12.128;2023-12-04T12:49:18;35.65;;;22.23;;
27925;SDS011;15267;47.838;12.128;2023-12-04T12:51:45;35.72;;;23.15;;
27925;SDS011;15267;47.838;12.128;2023-12-04T12:54:11;33.17;;;21.38;;
27925;SDS011;15267;47.838;12.128;2023-12-04T12:56:37;31.85;;;21.35;;
27925;SDS011;15267;47.838;12.128;2023-12-04T12:59:04;35.50;;;22.30;;
27925;SDS011;15267;47.838;12.128;2023-12-04T13:01:31;37.53;;;22.98;;
27925;SDS011;15267;47.838;12.128;2023-12-04T13:03:58;33.72;;;21.95;;
27925;SDS011;15267;47.838;12.128;2023-12-04T13:06:25;33.95;;;23.05;;
27925;SDS011;15267;47.838;12.128;2023-12-04T13:08:51;38.38;;;23.15;;
27925;SDS011;15267;47.838;12.128;2023-12-04T13:11:17;31.98;;;21.42;;
27925;SDS011;15267;47.838;12.128;2023-12-04T13:13:43;31.25;;;21.67;;
27925;SDS011;15267;47.838;12.128;2023-12-04T13:16:10;32.20;;;19.98;;
27925;SDS011;15267;47.838;12.128;2023-12-04T13:18:35;28.33;;;18.60;;
27925;SDS011;15267;47.838;12.128;2023-12-04T13:21:03;30.50;;;21.17;;
27925;SDS011;15267;47.838;12.128;2023-12-04T13:23:29;31.42;;;20.92;;
27925;SDS011;15267;47.838;12.128;2023-12-04T13:25:55;33.85;;;23.50;;
27925;SDS011;15267;47.838;12.128;2023-12-04T13:28:20;31.73;;;22.27;;
27925;SDS011;15267;47.838;12.128;2023-12-04T13:30:46;33.80;;;22.58;;
27925;SDS011;15267;47.838;12.128;2023-12-04T13:33:13;38.08;;;23.45;;
27925;SDS011;15267;47.838;12.128;2023-12-04T13:35:39;35.95;;;24.40;;
27925;SDS011;15267;47.838;12.128;2023-12-04T13:38:05;36.78;;;23.73;;
27925;SDS011;15267;47.838;12.128;2023-12-04T13:40:37;37.45;;;26.42;;
27925;SDS011;15267;47.838;12.128;2023-12-04T13:43:03;33.00;;;22.73;;
27925;SDS011;15267;47.838;12.128;2023-12-04T13:45:48;41.90;;;26.27;;
27925;SDS011;15267;47.838;12.128;2023-12-04T13:48:14;40.15;;;24.52;;
27925;SDS011;15267;47.838;12.128;2023-12-04T13:50:40;33.45;;;23.00;;
27925;SDS011;15267;47.838;12.128;2023-12-04T13:53:06;33.33;;;22.25;;
27925;SDS011;15267;47.838;12.128;2023-12-04T13:55:33;33.08;;;21.95;;
27925;SDS011;15267;47.838;12.128;2023-12-04T13:58:31;32.50;;;21.33;;
27925;SDS011;15267;47.838;12.128;2023-12-04T14:01:02;36.13;;;23.20;;
27925;SDS011;15267;47.838;12.128;2023-12-04T14:03:38;35.35;;;23.35;;
27925;SDS011;15267;47.838;12.128;2023-12-04T14:06:04;32.55;;;22.55;;
27925;SDS011;15267;47.838;12.128;2023-12-04T14:08:30;32.38;;;22.13;;
27925;SDS011;15267;47.838;12.128;2023-12-04T14:10:56;35.00;;;22.85;;
27925;SDS011;15267;47.838;12.128;2023-12-04T14:13:22;32.88;;;21.73;;